Terminal Aerodrome Forecast
Issued by NWS

Home | Current Version | Previous Version | Text Only | Print | Product List | Glossary On
Versions: 1 2 3 4 5 6 7 8 9 10 11 12 13 14 15
280
FTUS46 KSEW 211720
TAFBFI
TAF
KBFI 211720Z 2118/2218 20010KT P6SM SCT030
     FM212100 VRB05KT P6SM VCSH BKN040
     FM220000 35007KT P6SM VCSH BKN040
     FM220500 VRB03KT P6SM SCT050 BKN250
     FM221700 35005KT P6SM SCT250=

USA.gov is the U.S. government's official web portal to all federal, state and local government web resources and services.